Aérodrome :
LOGIN :

S'inscrire | Disclaimer

   EN    FR    IT 

 










Légende :    VFR   VFR Marginal   IFR   IFR Intensif   IFR Très Intensif
Visi : 
Plafond : 
>= 8 km
>= 3000ft
5 à 8 km
1000 à 3000 ft
1500m à 5 km
500 à 1000 ft
800 à 1500m
200 à 500 ft
< 800m
< 200 ft
Symboles :   Orages  Brouillard  Fortes neiges  Fortes précipitations  Vent > 20 kt
SIGMETs :   Divers  Orages  Givrage  Turbulence  Onde Orograph.  Cendres Volcan.







- Altitude de l'aérodrome : 1504 ft
- Code IATA : PNA


LEPP - Noain Pamplona

DERNIER METAR :
  • 181430Z 18014KT 140V220 9999 FEW040 32/07 Q1010

METARs EXPIRÉS :
  • 181400Z 15015G28KT 120V200 9999 FEW040 31/07 Q1010
  • 181330Z 15015G29KT 100V210 9999 FEW040 31/06 Q1010
  • 181300Z 16015KT 110V200 9999 FEW040 32/07 Q1011
  • 181230Z 14013KT 100V170 CAVOK 31/07 Q1011
  • 181200Z 15013G25KT 100V210 CAVOK 31/06 Q1011

TAF TAF LEPP
Valide du 18 à 15h jusqu'au 19 à 15h UTC


181400Z 1815/1915 18009KT 9999 FEW030 TX32/1815Z TN13/1904Z
TEMPO 1815/1819 19015G25KT
PROB40
TEMPO 1818/1821 33010KT
Pas de NOTAMs connus pour ce terrain.



MET'MAP, la Météo Aéronautique d'un coup d'oeil ! - Copyright ORBIFLY Décembre 2007 - Disclaimer

ORBIFLY MET'MAP TEAM :

Programmation & Développement : Alexandra Zaïnal
Conception & Développement : Baudouin d'Aumeries
Co-Programmation & Développement : Marc-Olivier Méhu
Soutien technique & logistique : Manuel Goepfert

Contact : metmap@orbifly.com




SOURCES & CREDITS :

   NOAA